Captain Cook, HI

2:12 PM HST on May 06, 2015 (GMT -1000)
Bradshaw Army Air Field | | Change Station
CLOSE
Current Station
Airport
Location: Bradshaw AFB,
Elevation: 6191 ft
Nearby Weather Stations
Active Advisory: High Surf Advisory

Elev 6191 ft 19.76 °N, 155.55 °W | Updated 16 minutes ago

Clear
Clear
68 °F
Feels Like 68 °F
N
8
Wind Variable Wind from WSW
Gusts 20 mph

Today
High -- | Low -- °F
--% Chance of Precip.
Yesterday
High -- | Low -- °F
Precip. -- in
5:52 AM 6:48 PM
Waning Gibbous, 91% visible
Pressure 29.92 in
Visibility 9.0 miles
Clouds Clear
Dew Point 50 °F
Humidity 53%
Rainfall 0.00 in
Snow Depth Not available.
UV 12 out of 12
Pollen Not available.
Air Quality Not available.
Flu Activity Regional
METAR PHSF 062356Z AUTO 25007G17KT 9SM CLR 20/10 A3023 RMK AO2 SLP131 T02000101 10210 20144 58015 $

More Conditions Fewer Conditions

Pressure 29.92 in
Visibility 9.0 miles
Clouds Clear
Dew Point 50 °F
Humidity 53%
Rainfall 0.00 in
Snow Depth Not available.
UV 12 out of 12
Pollen Not available.
Air Quality Not available.
Flu Activity Regional
METAR PHSF 062356Z AUTO 25007G17KT 9SM CLR 20/10 A3023 RMK AO2 SLP131 T02000101 10210 20144 58015 $

More Conditions Fewer Conditions

10-Day Weather Forecast

Almanac

Astronomy

May. 06, 2015 Rise Set
Actual Time
Civil Twilight
Nautical Twilight
Astronomical Twilight
Moon
Length of Visible Light
Length of Day
Tomorrow will be .
, % of the Moon is Illuminated

Today's Extremes

State Highs State Lows

Community

WunderPhotos

Upload Photos

1,819,052 photos uploaded!

WunderBlogs® & News

Nearby

Air Quality

  Air Quality AQ Index Pollutant
Not available.

Snow Depth

Station Depth Elevation

Earthquake Activity

City Distance Mag. Time & Date
Minimum magnitude displayed is 2.5.

Coastal Water Temperatures

Place Temperature

Stations

Nearby Weather Stations

Station Location Temp. Windchill Dew Point Humidity Wind Precip. Elev Updated Type
                   
High Surf Advisory
Statement as of 3:16 AM HST on May 06, 2015

... High surf advisory remains in effect until 10 am HST
Thursday...

A high surf advisory remains in effect until 10 am HST Thursday.

* Surf... 5 to 8 feet for south facing shores.

* Timing... surf peaking today and tonight... then gradually
diminishing Thursday and Friday.

* Impacts... moderate... expect strong breaking waves... shore
break... and strong longshore and rip currents making swimming
difficult and dangerous.

Precautionary/preparedness actions...

Beachgoers... swimmers... and surfers should heed all advice given
by ocean safety officials and exercise caution. If in doubt... do
not go out. Boaters should expect recreational surfers and body
boarders utilizing Harbor channels to access surfing areas.